Time;durP1;ratioP1;P1;durP2;ratioP2;P2;SDS_P1;SDS_P2;PMS_P1;PMS_P2;Temp;Humidity;BMP_temperature;BMP_pressure;BME280_temperature;BME280_humidity;BME280_pressure;Samples;Min_cycle;Max_cycle;Signal;HPM_P1;HPM_P2
2022/07/03 00:01:26;;;;;;;19.42;11.57;;;22.80;76.20;;;;;;5100063;28;20041;-47
2022/07/03 00:03:52;;;;;;;17.95;12.05;;;22.90;78.20;;;;;;5091928;28;20047;-51
2022/07/03 00:06:18;;;;;;;17.80;11.27;;;22.90;79.30;;;;;;5084113;28;20032;-48
2022/07/03 00:08:44;;;;;;;17.80;11.15;;;22.90;79.30;;;;;;5084828;28;20060;-47
2022/07/03 00:11:11;;;;;;;14.00;9.25;;;23.00;79.30;;;;;;5103043;28;20020;-49
2022/07/03 00:13:37;;;;;;;14.95;10.57;;;23.00;79.20;;;;;;5086620;28;20039;-50
2022/07/03 00:16:03;;;;;;;12.77;9.50;;;23.10;78.70;;;;;;5105271;28;20032;-50
2022/07/03 00:18:29;;;;;;;13.40;8.57;;;23.10;78.40;;;;;;5081269;28;20028;-50
2022/07/03 00:21:03;;;;;;;11.35;8.30;;;23.10;77.40;;;;;;5084941;28;20100;-47
2022/07/03 00:23:30;;;;;;;11.25;8.05;;;23.10;77.10;;;;;;5090772;28;20038;-52
2022/07/03 00:25:57;;;;;;;;;;;23.10;76.40;;;;;;5086071;28;20042;-51
2022/07/03 00:28:23;;;;;;;10.25;6.50;;;23.20;75.60;;;;;;5084968;28;19915;-52
2022/07/03 00:30:49;;;;;;;8.93;6.50;;;23.20;75.80;;;;;;5065325;28;20019;-52
2022/07/03 00:33:15;;;;;;;7.95;5.95;;;23.20;76.00;;;;;;5073774;28;20029;-49
2022/07/03 00:35:43;;;;;;;9.93;6.28;;;23.20;75.60;;;;;;5077016;28;20040;-48
2022/07/03 00:38:11;;;;;;;6.88;5.22;;;23.20;75.40;;;;;;5076246;28;20020;-47
2022/07/03 00:40:37;;;;;;;6.40;5.20;;;23.20;74.70;;;;;;5084414;28;20032;-53
2022/07/03 00:43:04;;;;;;;6.30;5.00;;;23.20;74.20;;;;;;5073187;28;20130;-51
2022/07/03 00:45:33;;;;;;;6.13;4.72;;;23.20;73.80;;;;;;5063770;28;20021;-50
2022/07/03 00:47:59;;;;;;;5.43;4.70;;;23.20;73.80;;;;;;5072560;28;20037;-51
2022/07/03 00:50:28;;;;;;;7.13;4.45;;;23.30;73.90;;;;;;5073349;28;20032;-49
2022/07/03 00:52:54;;;;;;;5.85;4.20;;;23.30;73.40;;;;;;5082626;28;20066;-50
2022/07/03 00:55:20;;;;;;;7.22;5.57;;;23.30;73.30;;;;;;5079529;28;20037;-49
2022/07/03 00:57:47;;;;;;;10.38;7.93;;;23.30;73.20;;;;;;5064097;28;20093;-52
2022/07/03 01:00:14;;;;;;;10.30;7.13;;;23.30;72.40;;;;;;5069492;28;20532;-50
2022/07/03 01:02:46;;;;;;;34.33;23.20;;;23.30;72.30;;;;;;5084738;28;20051;-49
2022/07/03 01:05:24;;;;;;;20.33;13.70;;;23.30;68.10;;;;;;5070523;28;20062;-55
2022/07/03 01:08:12;;;;;;;26.17;18.05;;;23.30;70.00;;;;;;5086411;28;20107;-48
2022/07/03 01:10:49;;;;;;;23.27;16.77;;;23.30;69.80;;;;;;5066175;28;20025;-47
2022/07/03 01:13:25;;;;;;;22.88;15.40;;;23.30;69.50;;;;;;5081902;28;20032;-48
2022/07/03 01:16:06;;;;;;;22.85;15.13;;;23.30;69.10;;;;;;5081361;28;20029;-44
2022/07/03 01:18:51;;;;;;;21.20;13.60;;;23.30;69.80;;;;;;5086034;28;20041;-49
2022/07/03 01:21:42;;;;;;;22.35;15.02;;;23.20;69.50;;;;;;5083796;28;20020;-45
2022/07/03 01:24:39;;;;;;;17.15;11.85;;;23.20;71.20;;;;;;5101325;28;20035;-55
2022/07/03 01:27:10;;;;;;;16.45;11.18;;;23.20;70.50;;;;;;5088279;28;20024;-51
2022/07/03 01:29:59;;;;;;;14.13;10.30;;;23.10;69.70;;;;;;5083720;28;20123;-50
2022/07/03 01:32:28;;;;;;;15.23;10.73;;;23.10;69.50;;;;;;5086897;28;20039;-47
2022/07/03 01:34:54;;;;;;;14.88;10.52;;;23.10;70.30;;;;;;5089447;28;20113;-50
2022/07/03 01:37:22;;;;;;;19.23;12.45;;;23.10;70.10;;;;;;5089504;28;20017;-51
2022/07/03 01:39:51;;;;;;;21.77;18.38;;;23.10;71.30;;;;;;5091857;28;20474;-51
2022/07/03 01:42:19;;;;;;;22.15;19.83;;;23.10;71.60;;;;;;5073236;28;20035;-49
2022/07/03 01:44:45;;;;;;;21.45;19.23;;;23.10;70.90;;;;;;5084507;28;20028;-53
2022/07/03 01:47:11;;;;;;;24.63;22.13;;;23.10;70.00;;;;;;5085806;28;20807;-49
2022/07/03 01:49:37;;;;;;;22.90;20.52;;;23.10;69.30;;;;;;5081341;28;20059;-48
2022/07/03 01:52:04;;;;;;;30.90;28.00;;;23.10;69.40;;;;;;5081885;28;20024;-49
2022/07/03 01:54:30;;;;;;;25.30;22.87;;;23.10;68.10;;;;;;5081868;28;20040;-50
2022/07/03 01:56:56;;;;;;;31.77;28.98;;;23.10;67.60;;;;;;5069755;28;20066;-50
2022/07/03 01:59:22;;;;;;;25.88;23.38;;;23.10;68.00;;;;;;5063049;28;20033;-51
2022/07/03 02:01:56;;;;;;;16.92;15.32;;;23.10;66.80;;;;;;5100874;28;20081;-48
2022/07/03 02:04:32;;;;;;;13.13;11.80;;;23.10;66.50;;;;;;5072148;28;20033;-50
2022/07/03 02:07:20;;;;;;;11.48;8.77;;;23.10;66.30;;;;;;5069492;28;20032;-50
2022/07/03 02:09:56;;;;;;;12.55;8.15;;;23.10;66.00;;;;;;5095167;28;20045;-51
2022/07/03 02:12:24;;;;;;;6.72;5.75;;;23.10;65.90;;;;;;5080903;28;20055;-60
2022/07/03 02:15:03;;;;;;;6.53;5.22;;;23.10;63.60;;;;;;5078740;28;20051;-50
2022/07/03 02:17:33;;;;;;;6.25;5.65;;;23.10;62.80;;;;;;5077071;28;20021;-57
2022/07/03 02:20:04;;;;;;;5.72;4.82;;;23.10;63.40;;;;;;5076017;28;20037;-53
2022/07/03 02:22:40;;;;;;;6.10;4.70;;;23.20;63.40;;;;;;5062871;28;20044;-59
2022/07/03 02:25:15;;;;;;;4.57;3.60;;;23.20;63.40;;;;;;5076222;28;20694;-51
2022/07/03 02:27:44;;;;;;;4.50;3.53;;;23.20;63.00;;;;;;5080633;28;20039;-48
2022/07/03 02:30:11;;;;;;;5.40;3.67;;;23.10;62.40;;;;;;5084638;28;20029;-56
2022/07/03 02:32:40;;;;;;;3.28;2.92;;;23.10;62.50;;;;;;5080380;28;20051;-51
2022/07/03 02:35:11;;;;;;;3.42;2.95;;;23.00;62.30;;;;;;5081717;28;20051;-52
2022/07/03 02:37:45;;;;;;;24.77;15.45;;;22.90;62.30;;;;;;5067221;28;20052;-50
2022/07/03 02:40:40;;;;;;;66.13;39.47;;;22.90;62.40;;;;;;5067191;28;20029;-49
2022/07/03 02:43:28;;;;;;;126.60;69.95;;;22.90;62.50;;;;;;5082116;28;20053;-51
2022/07/03 02:48:51;;;;;;;85.07;46.90;;;22.80;62.30;;;;;;5078190;28;20041;-59
2022/07/03 02:51:22;;;;;;;70.18;39.88;;;22.80;62.10;;;;;;5081834;28;20032;-57
2022/07/03 02:54:01;;;;;;;63.83;37.70;;;22.80;62.20;;;;;;5081448;28;20047;-52
2022/07/03 02:56:49;;;;;;;53.88;31.90;;;22.80;63.00;;;;;;5068574;28;20105;-52
2022/07/03 02:59:36;;;;;;;44.22;27.85;;;22.80;63.00;;;;;;5086562;28;20040;-49
2022/07/03 03:02:36;;;;;;;46.22;27.35;;;22.80;61.20;;;;;;5064948;28;20040;-52
2022/07/03 03:05:12;;;;;;;38.60;22.80;;;22.80;60.70;;;;;;5081358;28;20043;-60
2022/07/03 03:07:53;;;;;;;32.58;20.80;;;22.80;60.50;;;;;;5080510;28;20032;-59
2022/07/03 03:10:20;;;;;;;32.85;20.35;;;22.80;60.00;;;;;;5071156;28;20099;-60
2022/07/03 03:12:57;;;;;;;30.48;19.17;;;22.80;60.00;;;;;;5087158;28;20206;-57
2022/07/03 03:15:25;;;;;;;27.63;17.65;;;22.80;59.80;;;;;;5064860;28;20055;-58
2022/07/03 03:17:52;;;;;;;23.88;16.45;;;22.80;59.90;;;;;;5074109;28;20021;-58
2022/07/03 03:20:18;;;;;;;25.30;16.83;;;22.80;59.80;;;;;;5096444;28;20034;-57
2022/07/03 03:23:05;;;;;;;24.00;15.43;;;22.80;59.90;;;;;;5095621;28;20041;-58
2022/07/03 03:25:32;;;;;;;22.08;13.98;;;22.70;59.80;;;;;;5061859;28;20025;-54
2022/07/03 03:27:59;;;;;;;24.98;13.30;;;22.70;59.70;;;;;;5082166;28;20048;-53
2022/07/03 03:30:25;;;;;;;;;;;22.70;59.30;;;;;;5066847;28;20051;-49
2022/07/03 03:32:51;;;;;;;17.95;11.73;;;22.70;59.20;;;;;;5085413;28;19995;-55
2022/07/03 03:35:17;;;;;;;16.73;10.82;;;22.60;59.00;;;;;;5080428;28;20063;-57
2022/07/03 03:37:44;;;;;;;17.40;11.20;;;22.60;59.00;;;;;;5080581;28;20088;-51
2022/07/03 03:40:10;;;;;;;;;;;22.60;59.00;;;;;;5094258;28;20081;-52
2022/07/03 03:42:37;;;;;;;11.70;8.27;;;22.50;59.20;;;;;;5101100;28;19938;-53
2022/07/03 03:45:03;;;;;;;13.95;9.32;;;22.50;59.00;;;;;;5101770;28;20034;-53
2022/07/03 03:47:29;;;;;;;12.07;8.23;;;22.50;59.00;;;;;;5092022;28;20024;-59
2022/07/03 03:49:55;;;;;;;10.75;7.70;;;22.50;59.10;;;;;;5081639;28;20020;-58
2022/07/03 03:52:22;;;;;;;10.48;7.57;;;22.40;59.10;;;;;;5071245;28;20103;-59
2022/07/03 03:54:48;;;;;;;9.27;6.75;;;22.40;59.10;;;;;;5089881;28;20044;-51
2022/07/03 03:57:18;;;;;;;9.68;6.90;;;22.40;59.20;;;;;;5078627;28;20052;-50
2022/07/03 03:59:44;;;;;;;8.98;5.90;;;22.40;59.10;;;;;;5081745;28;20028;-59
2022/07/03 04:02:11;;;;;;;8.13;6.00;;;22.30;59.00;;;;;;5081518;28;20082;-55
2022/07/03 04:04:37;;;;;;;7.70;5.50;;;22.30;59.00;;;;;;5082468;28;20109;-54
2022/07/03 04:07:03;;;;;;;7.25;4.93;;;22.30;59.00;;;;;;5079495;28;20047;-54
2022/07/03 04:09:29;;;;;;;6.63;5.10;;;22.30;58.80;;;;;;5080850;28;20040;-52
2022/07/03 04:11:56;;;;;;;6.07;4.57;;;22.20;58.90;;;;;;5080537;28;20024;-54
2022/07/03 04:14:22;;;;;;;6.27;4.70;;;22.20;59.00;;;;;;5080692;28;20059;-54
2022/07/03 04:16:48;;;;;;;6.10;4.50;;;22.20;59.00;;;;;;5078863;28;20039;-54
2022/07/03 04:19:14;;;;;;;5.57;4.22;;;22.20;59.10;;;;;;5078328;28;20062;-53
2022/07/03 04:21:41;;;;;;;5.20;3.70;;;22.10;59.00;;;;;;5080401;28;20028;-54
2022/07/03 04:24:07;;;;;;;4.60;3.50;;;22.10;59.00;;;;;;5080461;28;20056;-50
2022/07/03 04:26:33;;;;;;;5.23;3.70;;;22.10;59.00;;;;;;5083593;28;20039;-54
2022/07/03 04:29:00;;;;;;;4.53;3.53;;;22.10;59.50;;;;;;5085003;28;20117;-57
2022/07/03 04:31:26;;;;;;;4.93;3.65;;;22.00;59.00;;;;;;5082950;28;20074;-58
2022/07/03 04:33:53;;;;;;;3.93;3.20;;;22.00;58.90;;;;;;5082088;28;20856;-58
2022/07/03 04:36:19;;;;;;;3.40;2.60;;;22.00;59.00;;;;;;5083667;28;20083;-57
2022/07/03 04:38:45;;;;;;;3.83;2.90;;;21.90;58.90;;;;;;5084091;28;20028;-56
2022/07/03 04:41:11;;;;;;;3.88;2.60;;;21.90;58.90;;;;;;5083654;28;20025;-59
2022/07/03 04:43:37;;;;;;;3.63;3.08;;;21.90;58.90;;;;;;5083653;28;20048;-58
2022/07/03 04:46:04;;;;;;;2.92;2.63;;;21.90;58.90;;;;;;5083365;28;20042;-57
2022/07/03 04:48:30;;;;;;;3.90;2.65;;;21.80;59.50;;;;;;5083750;28;20017;-58
2022/07/03 04:50:56;;;;;;;3.35;2.55;;;21.80;59.00;;;;;;5083951;28;20032;-58
2022/07/03 04:53:23;;;;;;;3.55;2.83;;;21.80;59.00;;;;;;5083286;28;20032;-58
2022/07/03 04:55:49;;;;;;;2.40;2.20;;;21.70;58.90;;;;;;5083598;28;21207;-59
2022/07/03 04:58:15;;;;;;;2.40;2.20;;;21.70;58.90;;;;;;5083485;28;20020;-58
2022/07/03 05:00:42;;;;;;;2.30;2.00;;;21.70;59.00;;;;;;5083229;28;20569;-56
2022/07/03 05:03:08;;;;;;;2.53;2.20;;;21.70;58.80;;;;;;5075546;28;20021;-53
2022/07/03 05:05:34;;;;;;;2.10;1.90;;;21.60;59.00;;;;;;5082791;28;20024;-56
2022/07/03 05:08:01;;;;;;;2.80;2.33;;;21.60;58.90;;;;;;5080610;28;20835;-57
2022/07/03 05:10:27;;;;;;;2.65;2.08;;;21.60;59.00;;;;;;5087057;28;20078;-56
2022/07/03 05:12:53;;;;;;;1.73;1.60;;;21.60;59.00;;;;;;5084164;28;20043;-51
2022/07/03 05:15:19;;;;;;;2.22;2.00;;;21.60;59.10;;;;;;5083791;28;20143;-47
2022/07/03 05:17:46;;;;;;;2.10;1.83;;;21.60;59.10;;;;;;5083721;28;20024;-51
2022/07/03 05:20:24;;;;;;;2.30;1.90;;;21.50;59.00;;;;;;5089437;28;20062;-50
2022/07/03 05:22:56;;;;;;;1.90;1.80;;;21.50;59.00;;;;;;5104425;28;20047;-53
2022/07/03 05:25:23;;;;;;;1.95;1.80;;;21.40;58.90;;;;;;5104078;28;20024;-52
2022/07/03 05:27:55;;;;;;;1.90;1.80;;;21.40;58.80;;;;;;5083841;28;20029;-57
2022/07/03 05:30:22;;;;;;;1.70;1.60;;;21.40;58.90;;;;;;5083945;28;20717;-56
2022/07/03 05:32:49;;;;;;;1.80;1.70;;;21.40;58.90;;;;;;5082760;28;20025;-55
2022/07/03 05:35:15;;;;;;;1.88;1.73;;;21.30;58.80;;;;;;5089093;28;20512;-55
2022/07/03 05:37:41;;;;;;;2.13;1.52;;;21.30;58.80;;;;;;5086961;28;20032;-56
2022/07/03 05:40:07;;;;;;;1.83;1.70;;;21.30;58.80;;;;;;5103788;28;20048;-56
2022/07/03 05:42:34;;;;;;;1.55;1.45;;;21.30;58.80;;;;;;5103925;28;20123;-55
2022/07/03 05:45:00;;;;;;;1.80;1.70;;;21.20;58.80;;;;;;5103837;28;20039;-54
2022/07/03 05:47:26;;;;;;;1.43;1.33;;;21.20;58.80;;;;;;5094852;28;20048;-53
2022/07/03 05:49:53;;;;;;;1.60;1.50;;;21.20;59.10;;;;;;5083648;28;20043;-51
2022/07/03 05:52:19;;;;;;;2.13;1.92;;;21.10;59.30;;;;;;5082224;28;20050;-52
2022/07/03 05:54:45;;;;;;;1.85;1.75;;;21.10;59.60;;;;;;5086247;28;20085;-54
2022/07/03 05:57:12;;;;;;;1.95;1.77;;;21.10;59.90;;;;;;5069391;28;20100;-52
2022/07/03 05:59:38;;;;;;;2.20;1.55;;;21.10;60.20;;;;;;5063312;28;20037;-52
2022/07/03 06:02:04;;;;;;;2.08;1.40;;;21.10;60.10;;;;;;5065301;28;20917;-50
2022/07/03 06:04:30;;;;;;;1.85;1.67;;;21.10;60.00;;;;;;5062173;28;20028;-51
2022/07/03 06:06:56;;;;;;;1.73;1.58;;;21.10;60.10;;;;;;5066836;28;20028;-52
2022/07/03 06:09:23;;;;;;;1.60;1.50;;;21.00;60.30;;;;;;5065467;28;20071;-53
2022/07/03 06:11:49;;;;;;;1.70;1.60;;;21.00;60.60;;;;;;5063612;28;20049;-54
2022/07/03 06:14:15;;;;;;;1.75;1.65;;;21.00;61.00;;;;;;5060498;28;20028;-50
2022/07/03 06:16:41;;;;;;;1.92;1.50;;;21.00;61.40;;;;;;5062882;28;20029;-54
2022/07/03 06:19:08;;;;;;;2.10;1.90;;;21.00;61.70;;;;;;5057234;28;20025;-54
2022/07/03 06:21:34;;;;;;;1.77;1.63;;;21.00;62.00;;;;;;5066314;28;20172;-53
2022/07/03 06:24:00;;;;;;;1.60;1.50;;;21.00;62.30;;;;;;5065529;28;20020;-50
2022/07/03 06:26:28;;;;;;;1.65;1.55;;;21.00;62.60;;;;;;5071011;28;20029;-50
2022/07/03 06:28:55;;;;;;;1.70;1.60;;;21.00;62.90;;;;;;5094438;28;20108;-51
2022/07/03 06:31:21;;;;;;;2.22;1.60;;;21.00;62.70;;;;;;5103071;28;20020;-53
2022/07/03 06:33:47;;;;;;;1.60;1.50;;;21.00;62.20;;;;;;5092296;28;20063;-52
2022/07/03 06:36:14;;;;;;;1.95;1.77;;;21.00;62.30;;;;;;5082799;28;20565;-51
2022/07/03 06:38:40;;;;;;;4.32;2.03;;;21.00;62.50;;;;;;5082510;28;20051;-51
2022/07/03 06:41:06;;;;;;;3.20;1.75;;;21.00;62.70;;;;;;5082450;28;20485;-49
2022/07/03 06:43:32;;;;;;;2.05;1.85;;;21.00;63.10;;;;;;5082305;28;20048;-52
2022/07/03 06:45:58;;;;;;;1.65;1.55;;;21.00;63.40;;;;;;5094619;28;20045;-52
2022/07/03 06:48:24;;;;;;;1.70;1.60;;;21.00;63.50;;;;;;5073128;28;20055;-52
2022/07/03 06:50:50;;;;;;;2.83;1.80;;;21.00;63.70;;;;;;5082464;28;20514;-56
2022/07/03 06:53:16;;;;;;;2.40;1.90;;;21.00;63.80;;;;;;5082231;28;20036;-58
2022/07/03 06:55:42;;;;;;;1.77;1.67;;;21.10;63.90;;;;;;5077526;28;20112;-56
2022/07/03 06:58:09;;;;;;;2.45;1.70;;;21.10;64.00;;;;;;5081893;28;20028;-57
2022/07/03 07:00:36;;;;;;;2.00;1.80;;;21.10;64.10;;;;;;5082507;28;20032;-57
2022/07/03 07:03:02;;;;;;;1.70;1.60;;;21.10;64.20;;;;;;5088914;28;20021;-52
2022/07/03 07:05:28;;;;;;;2.20;2.00;;;21.10;64.30;;;;;;5062011;28;20033;-49
2022/07/03 07:07:54;;;;;;;2.05;1.85;;;21.10;64.50;;;;;;5077560;28;20052;-51
2022/07/03 07:10:20;;;;;;;1.90;1.80;;;21.10;64.60;;;;;;5082189;28;20074;-50
2022/07/03 07:12:47;;;;;;;2.75;1.73;;;21.20;65.00;;;;;;5082013;28;20028;-51
2022/07/03 07:15:13;;;;;;;1.88;1.60;;;21.20;65.10;;;;;;5082102;28;20072;-50
2022/07/03 07:17:39;;;;;;;1.77;1.67;;;21.20;65.20;;;;;;5081395;28;20024;-49
2022/07/03 07:20:05;;;;;;;2.72;1.90;;;21.20;65.20;;;;;;5094944;28;20039;-49
2022/07/03 07:22:31;;;;;;;1.70;1.60;;;21.20;65.30;;;;;;5097734;28;20081;-50
2022/07/03 07:24:57;;;;;;;2.03;1.75;;;21.20;65.20;;;;;;5081843;28;20032;-53
2022/07/03 07:27:23;;;;;;;1.98;1.77;;;21.20;65.30;;;;;;5081882;28;20020;-50
2022/07/03 07:29:50;;;;;;;4.30;1.95;;;21.30;65.40;;;;;;5081850;28;20024;-50
2022/07/03 07:32:16;;;;;;;1.57;1.47;;;21.30;65.30;;;;;;5081874;28;20029;-48
2022/07/03 07:34:42;;;;;;;1.90;1.80;;;21.30;65.30;;;;;;5080731;28;20118;-49
2022/07/03 07:37:08;;;;;;;2.95;1.92;;;21.30;65.30;;;;;;5082254;28;20021;-50
2022/07/03 07:39:34;;;;;;;2.30;2.10;;;21.30;65.30;;;;;;5081578;28;20031;-49
2022/07/03 07:42:00;;;;;;;2.53;1.80;;;21.30;65.30;;;;;;5081575;28;20012;-49
2022/07/03 07:44:26;;;;;;;2.08;1.88;;;21.40;65.30;;;;;;5081919;28;20043;-57
2022/07/03 07:46:53;;;;;;;1.83;1.70;;;21.40;65.30;;;;;;5081617;28;20500;-58
2022/07/03 07:49:19;;;;;;;1.95;1.58;;;21.40;65.30;;;;;;5062027;28;20029;-58
2022/07/03 07:51:45;;;;;;;1.98;1.88;;;21.40;65.30;;;;;;5078262;28;20051;-51
2022/07/03 07:54:11;;;;;;;1.90;1.80;;;21.40;65.30;;;;;;5081417;28;20550;-53
2022/07/03 07:56:37;;;;;;;1.70;1.60;;;21.40;65.30;;;;;;5081321;28;20055;-52
2022/07/03 07:59:03;;;;;;;1.73;1.63;;;21.50;65.30;;;;;;5082787;28;20031;-52
2022/07/03 08:06:58;;;;;;;2.15;1.73;;;21.50;65.20;;;;;;5081608;28;20035;-49
2022/07/03 08:09:24;;;;;;;1.85;1.75;;;21.50;65.20;;;;;;5085263;28;20025;-50
2022/07/03 08:11:50;;;;;;;2.15;1.95;;;21.50;65.20;;;;;;5102586;28;20025;-52
2022/07/03 08:14:16;;;;;;;1.92;1.83;;;21.60;65.20;;;;;;5084973;28;20096;-56
2022/07/03 08:16:44;;;;;;;1.63;1.50;;;21.60;65.30;;;;;;5085130;28;20109;-52
2022/07/03 08:19:11;;;;;;;1.70;1.60;;;21.60;65.20;;;;;;5084902;28;20028;-54
2022/07/03 08:21:37;;;;;;;1.70;1.60;;;21.60;65.20;;;;;;5084877;28;20031;-54
2022/07/03 08:24:03;;;;;;;1.73;1.60;;;21.60;65.20;;;;;;5085064;28;20091;-53
2022/07/03 08:26:29;;;;;;;2.15;1.95;;;21.60;65.10;;;;;;5077131;28;20328;-56
2022/07/03 08:28:55;;;;;;;1.80;1.70;;;21.60;65.00;;;;;;5063680;28;20052;-56
2022/07/03 08:31:21;;;;;;;1.70;1.60;;;21.60;65.00;;;;;;5067288;28;20025;-55
2022/07/03 08:33:47;;;;;;;2.10;2.00;;;21.60;65.00;;;;;;5067354;28;20055;-57
2022/07/03 08:36:13;;;;;;;2.03;1.92;;;21.60;65.70;;;;;;5065258;28;20036;-57
2022/07/03 08:38:39;;;;;;;1.80;1.70;;;21.70;65.20;;;;;;5068154;28;20025;-59
2022/07/03 08:41:06;;;;;;;1.50;1.40;;;21.70;65.20;;;;;;5065548;28;20033;-52
2022/07/03 08:43:32;;;;;;;1.52;1.42;;;21.70;65.20;;;;;;5070754;28;20054;-52
2022/07/03 08:45:59;;;;;;;3.25;1.60;;;21.70;65.20;;;;;;5045787;28;20024;-53
2022/07/03 08:48:25;;;;;;;2.13;1.55;;;21.70;65.20;;;;;;5064268;28;20035;-55
2022/07/03 08:50:52;;;;;;;1.73;1.63;;;21.70;65.20;;;;;;5065100;28;20029;-56
2022/07/03 08:53:18;;;;;;;1.80;1.70;;;21.80;65.20;;;;;;5066890;28;20082;-57
2022/07/03 08:55:53;;;;;;;1.75;1.65;;;21.70;65.20;;;;;;5062443;28;20076;-54
2022/07/03 08:58:21;;;;;;;2.00;1.90;;;21.80;65.20;;;;;;5064380;28;20413;-58
2022/07/03 09:00:47;;;;;;;2.20;1.83;;;21.80;65.20;;;;;;5075239;28;20027;-57
2022/07/03 09:03:14;;;;;;;2.42;1.70;;;21.80;65.90;;;;;;5095796;28;20081;-57
2022/07/03 09:05:40;;;;;;;1.67;1.58;;;21.80;65.10;;;;;;5063974;28;20032;-58
2022/07/03 09:08:08;;;;;;;1.70;1.60;;;21.80;65.00;;;;;;5081720;28;20037;-58
2022/07/03 09:10:34;;;;;;;1.92;1.83;;;21.80;65.00;;;;;;5082634;28;20032;-53
2022/07/03 09:13:00;;;;;;;2.10;2.00;;;21.80;65.00;;;;;;5083627;28;20013;-50
2022/07/03 09:15:26;;;;;;;3.55;1.95;;;21.80;65.10;;;;;;5084052;28;20036;-50
2022/07/03 09:18:04;;;;;;;2.10;1.90;;;21.80;65.20;;;;;;5082109;28;20111;-52
2022/07/03 09:20:43;;;;;;;2.00;1.80;;;21.90;65.30;;;;;;5088469;28;20086;-56
2022/07/03 09:23:22;;;;;;;1.80;1.70;;;21.90;65.30;;;;;;5083842;28;20039;-54
2022/07/03 09:26:15;;;;;;;2.25;1.60;;;21.90;65.20;;;;;;5082270;28;20025;-54
2022/07/03 09:28:53;;;;;;;1.80;1.70;;;21.90;65.20;;;;;;5021221;28;20081;-56
2022/07/03 09:31:26;;;;;;;1.95;1.85;;;21.90;65.20;;;;;;5020881;28;20164;-56
2022/07/03 09:34:02;;;;;;;2.20;2.00;;;21.90;65.10;;;;;;5020758;28;20065;-57
2022/07/03 09:36:47;;;;;;;1.92;1.80;;;21.90;65.10;;;;;;5029789;28;20030;-55
2022/07/03 09:39:42;;;;;;;1.70;1.60;;;21.90;65.10;;;;;;5021109;28;20040;-51
2022/07/03 09:42:12;;;;;;;1.75;1.65;;;21.90;65.00;;;;;;5020044;28;20060;-52
2022/07/03 09:44:40;;;;;;;2.10;1.80;;;21.90;65.00;;;;;;5020923;28;20037;-50
2022/07/03 09:47:16;;;;;;;2.15;1.50;;;21.90;64.90;;;;;;5020797;28;20065;-53
2022/07/03 09:49:54;;;;;;;1.60;1.50;;;22.00;64.40;;;;;;5020328;28;20040;-54
2022/07/03 09:52:35;;;;;;;;;;;22.00;63.60;;;;;;5023418;28;20549;-53
2022/07/03 09:55:12;;;;;;;1.50;1.40;;;22.00;63.60;;;;;;5040668;28;19917;-51
2022/07/03 09:57:57;;;;;;;1.77;1.67;;;22.00;63.70;;;;;;5022576;28;20032;-53
2022/07/03 10:00:31;;;;;;;2.00;1.80;;;22.00;63.80;;;;;;5020227;28;20613;-52
2022/07/03 10:03:02;;;;;;;1.58;1.48;;;22.00;63.80;;;;;;5020324;28;20068;-54
2022/07/03 10:05:35;;;;;;;1.92;1.73;;;22.00;63.80;;;;;;5046631;28;20036;-52
2022/07/03 10:08:10;;;;;;;1.85;1.63;;;22.00;63.80;;;;;;5066535;28;20032;-56
2022/07/03 10:10:45;;;;;;;2.15;1.70;;;22.00;63.90;;;;;;5062275;28;20067;-58
2022/07/03 10:13:11;;;;;;;2.25;1.65;;;22.00;63.90;;;;;;5077902;28;20393;-57
2022/07/03 10:15:38;;;;;;;1.55;1.45;;;22.00;64.00;;;;;;5083010;28;20039;-52
2022/07/03 10:18:05;;;;;;;1.73;1.63;;;22.00;64.10;;;;;;5077941;28;20024;-50
2022/07/03 10:20:53;;;;;;;1.73;1.63;;;22.00;64.10;;;;;;5082174;28;20029;-52
2022/07/03 10:23:25;;;;;;;1.75;1.65;;;22.00;64.20;;;;;;5082602;28;20052;-49
2022/07/03 10:25:51;;;;;;;1.80;1.70;;;22.00;64.20;;;;;;5085396;28;20033;-52
2022/07/03 10:28:18;;;;;;;2.20;2.10;;;22.00;64.30;;;;;;5096133;28;20092;-51
2022/07/03 10:30:45;;;;;;;1.70;1.60;;;22.00;64.30;;;;;;5082200;28;20036;-52
2022/07/03 10:33:12;;;;;;;2.00;1.80;;;22.00;64.30;;;;;;5081463;28;20082;-50
2022/07/03 10:35:48;;;;;;;1.67;1.58;;;22.00;64.30;;;;;;5082297;28;20056;-50
2022/07/03 10:38:39;;;;;;;1.85;1.70;;;22.10;64.40;;;;;;5063733;28;20800;-55
2022/07/03 10:46:58;;;;;;;1.80;1.70;;;22.00;64.40;;;;;;5097822;28;20032;-54
2022/07/03 10:49:24;;;;;;;1.67;1.58;;;22.10;64.50;;;;;;5081860;28;20051;-52
2022/07/03 10:51:55;;;;;;;1.70;1.60;;;22.10;64.50;;;;;;5082346;28;20042;-52
2022/07/03 10:54:22;;;;;;;1.58;1.48;;;22.10;64.40;;;;;;5082356;28;20040;-52
2022/07/03 10:57:01;;;;;;;2.05;1.85;;;22.10;63.70;;;;;;5067768;28;20036;-55
2022/07/03 10:59:36;;;;;;;1.67;1.58;;;22.10;63.10;;;;;;5062056;28;20032;-54
2022/07/03 11:02:32;;;;;;;1.80;1.70;;;22.10;63.20;;;;;;5062104;28;20021;-58
2022/07/03 11:05:01;;;;;;;2.03;1.75;;;22.10;63.30;;;;;;5080845;28;20036;-55
2022/07/03 11:07:28;;;;;;;1.63;1.50;;;22.10;63.40;;;;;;5081796;28;20021;-56
2022/07/03 11:10:10;;;;;;;1.80;1.70;;;22.10;63.40;;;;;;5081514;28;20043;-55
2022/07/03 11:13:15;;;;;;;1.77;1.67;;;22.10;63.60;;;;;;5082347;28;20074;-57
2022/07/03 11:15:54;;;;;;;2.08;1.98;;;22.10;63.60;;;;;;5080903;28;20048;-53
2022/07/03 11:18:27;;;;;;;1.60;1.50;;;22.10;63.70;;;;;;5082083;28;20086;-52
2022/07/03 11:20:53;;;;;;;1.98;1.77;;;22.10;63.70;;;;;;5081669;28;20394;-58
2022/07/03 11:23:29;;;;;;;2.10;1.83;;;22.10;63.80;;;;;;5082140;28;20127;-51
2022/07/03 11:25:56;;;;;;;1.88;1.70;;;22.10;63.80;;;;;;5081580;28;20035;-55
2022/07/03 11:28:31;;;;;;;2.08;1.88;;;22.10;63.90;;;;;;5081806;28;20025;-57
2022/07/03 11:31:18;;;;;;;2.08;1.88;;;22.10;63.90;;;;;;5081639;28;20029;-56
2022/07/03 11:33:44;;;;;;;2.22;1.70;;;22.10;63.90;;;;;;5081301;28;20036;-56
2022/07/03 11:36:31;;;;;;;2.00;1.90;;;22.10;64.00;;;;;;5085851;28;20539;-57
2022/07/03 11:38:57;;;;;;;1.90;1.80;;;22.10;64.00;;;;;;5084037;28;20025;-58
2022/07/03 11:41:24;;;;;;;2.08;1.70;;;22.10;64.10;;;;;;5085543;28;20033;-58
2022/07/03 11:43:52;;;;;;;1.60;1.50;;;22.10;64.10;;;;;;5085765;28;20051;-57
2022/07/03 11:46:26;;;;;;;1.70;1.60;;;22.10;64.20;;;;;;5085751;28;20032;-57
2022/07/03 11:49:07;;;;;;;1.90;1.80;;;22.10;64.20;;;;;;5081393;28;20675;-58
2022/07/03 11:51:34;;;;;;;1.83;1.73;;;22.10;64.20;;;;;;5093542;28;20036;-57
2022/07/03 11:54:00;;;;;;;1.90;1.80;;;22.10;64.20;;;;;;5100852;28;20032;-58
2022/07/03 11:56:27;;;;;;;1.90;1.70;;;22.20;64.40;;;;;;5085260;28;20028;-57
2022/07/03 11:58:54;;;;;;;;;;;22.20;64.40;;;;;;5085593;28;20097;-50
2022/07/03 12:01:26;;;;;;;1.92;1.60;;;22.20;65.00;;;;;;5085088;28;19909;-53
2022/07/03 12:03:53;;;;;;;1.95;1.75;;;22.20;64.60;;;;;;5074706;28;20029;-53
2022/07/03 12:06:21;;;;;;;1.77;1.67;;;22.20;64.60;;;;;;5067674;28;20028;-56
2022/07/03 12:08:47;;;;;;;2.28;2.05;;;22.20;64.70;;;;;;5081123;28;20035;-51
2022/07/03 12:11:15;;;;;;;1.80;1.65;;;22.20;64.70;;;;;;5084762;28;20029;-54
2022/07/03 12:13:41;;;;;;;3.55;1.60;;;22.20;64.70;;;;;;5084801;28;20088;-54
2022/07/03 12:16:14;;;;;;;1.90;1.80;;;22.20;64.10;;;;;;5084737;28;20123;-51
2022/07/03 12:18:44;;;;;;;1.75;1.65;;;22.20;63.20;;;;;;5084626;28;20024;-52
2022/07/03 12:21:10;;;;;;;1.73;1.60;;;22.20;63.00;;;;;;5084585;28;20106;-53
2022/07/03 12:23:50;;;;;;;1.67;1.58;;;22.20;63.00;;;;;;5085196;28;20112;-53
2022/07/03 12:26:32;;;;;;;1.85;1.75;;;22.20;63.20;;;;;;5099472;28;20054;-55
2022/07/03 12:29:07;;;;;;;1.70;1.60;;;22.20;63.30;;;;;;5105203;28;20040;-53
2022/07/03 12:31:33;;;;;;;1.95;1.73;;;22.20;63.50;;;;;;5102380;28;20032;-52
2022/07/03 12:34:00;;;;;;;1.60;1.50;;;22.20;63.60;;;;;;5074054;28;20509;-52
2022/07/03 12:36:26;;;;;;;1.73;1.63;;;22.20;63.70;;;;;;5067816;28;20040;-51
2022/07/03 12:38:53;;;;;;;1.98;1.88;;;22.20;63.80;;;;;;5084536;28;20028;-50
2022/07/03 12:41:19;;;;;;;1.63;1.50;;;22.20;63.90;;;;;;5084302;28;20134;-50
2022/07/03 12:43:47;;;;;;;1.70;1.60;;;22.20;64.10;;;;;;5085115;28;20856;-51
2022/07/03 12:46:34;;;;;;;1.77;1.67;;;22.20;64.20;;;;;;5084077;28;20040;-52
2022/07/03 12:49:08;;;;;;;1.80;1.70;;;22.20;64.30;;;;;;5083929;28;20029;-54
2022/07/03 12:51:49;;;;;;;2.38;1.77;;;22.30;64.50;;;;;;5084144;28;20032;-58
2022/07/03 12:54:34;;;;;;;1.70;1.60;;;22.20;64.50;;;;;;5084237;28;20028;-53
2022/07/03 13:00:05;;;;;;;1.77;1.67;;;22.30;64.80;;;;;;5087510;28;20665;-51
2022/07/03 13:02:33;;;;;;;1.85;1.75;;;22.30;64.90;;;;;;5104052;28;20021;-53
2022/07/03 13:05:00;;;;;;;1.95;1.75;;;22.30;65.00;;;;;;5066010;28;20096;-51
2022/07/03 13:07:32;;;;;;;2.08;1.83;;;22.30;64.40;;;;;;5062544;28;20029;-55
2022/07/03 13:10:01;;;;;;;1.52;1.42;;;22.30;63.60;;;;;;5075202;28;20032;-55
2022/07/03 13:12:27;;;;;;;2.95;1.88;;;22.30;63.20;;;;;;5082136;28;20092;-54
2022/07/03 13:15:00;;;;;;;1.90;1.80;;;22.30;63.60;;;;;;5083937;28;20044;-54